In Rescue
 
Open Full Screen Window  High Contrast Mode
Wind Gusting 00 knots
14
May 13, 2021 9:37 AM CDT
Weather Information
Wind Direction
  220 °
Wind Speed
  14 kt (16 mph)
Wind Gust
  00 kt (0 mph)
Altimeter
30.31 in
Visibility
10 SM
Temperature
18° C
64° F
Dewpoint
-01° C
30° F
Humidity
28%
1hr Rain Fall
00.00 in.
24hr Rain Fall
00.00 in.
Sky Condition
Clear
VFR

METAR KOVL 131437Z AUTO 22014KT 10SM CLR 18/M01 A3031 RMK AO

FAA Disclaimer: The data displayed is for advisory purposes only and is not to be used for flight planning or operations.